Time;durP1;ratioP1;P1;durP2;ratioP2;P2;SDS_P1;SDS_P2;PMS_P1;PMS_P2;Temp;Humidity;BMP_temperature;BMP_pressure;BME280_temperature;BME280_humidity;BME280_pressure;Samples;Min_cycle;Max_cycle;Signal;HPM_P1;HPM_P2
2023/05/24 00:02:07;;;;;;;;;;;;;;;16.93;60.16;101028.02;108742;1257;58533;-80
2023/05/24 00:04:34;;;;;;;;;;;;;;;16.91;60.30;101028.88;108735;1261;60353;-80
2023/05/24 00:07:05;;;;;;;;;;;;;;;16.88;60.38;101026.05;108721;1257;124365;-80
2023/05/24 00:09:32;;;;;;;;;;;;;;;16.86;60.43;101021.96;108714;1257;65518;-79
2023/05/24 00:11:59;;;;;;;;;;;;;;;16.83;60.44;101017.70;108488;1273;125316;-80
2023/05/24 00:14:29;;;;;;;;;;;;;;;16.80;60.64;101013.05;108775;1257;58418;-79
2023/05/24 00:16:56;;;;;;;;;;;;;;;16.78;60.69;101016.59;108779;1257;124660;-79
2023/05/24 00:19:30;;;;;;;;;;;;;;;16.77;60.88;101019.59;108879;1257;72990;-79
2023/05/24 00:21:57;;;;;;;;;;;;;;;16.77;61.11;101021.02;108779;1257;65717;-79
2023/05/24 00:24:24;;;;;;;;;;;;;;;16.78;61.37;101020.30;108671;1258;124731;-79
2023/05/24 00:26:51;;;;;;;;;;;;;;;16.79;61.84;101022.61;108795;1258;58301;-79
2023/05/24 00:29:18;;;;;;;;;;;;;;;16.78;61.97;101023.85;108676;1257;124091;-80
2023/05/24 00:31:45;;;;;;;;;;;;;;;16.76;62.18;101017.81;108720;1260;74606;-79
2023/05/24 00:34:12;;;;;;;;;;;;;;;16.75;62.35;101019.40;108698;1257;67072;-79
2023/05/24 00:36:38;;;;;;;;;;;;;;;16.74;62.35;101017.80;108554;1257;124520;-79
2023/05/24 00:39:05;;;;;;;;;;;;;;;16.72;62.27;101017.62;108649;1257;58723;-79
2023/05/24 00:41:32;;;;;;;;;;;;;;;16.71;62.43;101013.91;108599;1257;124320;-79
2023/05/24 00:43:59;;;;;;;;;;;;;;;16.71;62.45;101010.70;108659;1258;74219;-79
2023/05/24 00:46:27;;;;;;;;;;;;;;;16.72;62.64;101011.77;108783;1256;65905;-80
2023/05/24 00:48:53;;;;;;;;;;;;;;;16.72;62.87;101011.95;108686;1257;124047;-80
2023/05/24 00:51:20;;;;;;;;;;;;;;;16.69;62.86;101015.48;108756;1257;58652;-80
2023/05/24 00:53:47;;;;;;;;;;;;;;;16.65;62.80;101022.20;108691;1256;124832;-79
2023/05/24 00:56:14;;;;;;;;;;;;;;;16.63;63.04;101020.59;108767;1257;73615;-79
2023/05/24 00:58:41;;;;;;;;;;;;;;;16.63;63.18;101018.63;108683;1257;124514;-80
2023/05/24 01:01:08;;;;;;;;;;;;;;;16.63;63.32;101019.52;108747;1257;71250;-80
2023/05/24 01:03:35;;;;;;;;;;;;;;;16.62;63.44;101021.48;108798;1257;58854;-80
2023/05/24 01:06:03;;;;;;;;;;;;;;;16.60;63.40;101017.92;108630;1257;125686;-80
2023/05/24 01:08:30;;;;;;;;;;;;;;;16.59;63.58;101015.27;108703;1257;73910;-79
2023/05/24 01:11:02;;;;;;;;;;;;;;;16.59;63.66;101015.09;108730;1260;125310;-79
2023/05/24 01:13:32;;;;;;;;;;;;;;;16.60;63.68;101016.69;108817;1257;72692;-80
2023/05/24 01:16:09;;;;;;;;;;;;;;;16.61;63.85;101015.63;108717;1261;59276;-79
2023/05/24 01:18:40;;;;;;;;;;;;;;;16.64;64.07;101014.23;108655;1256;125305;-79
2023/05/24 01:21:15;;;;;;;;;;;;;;;16.66;64.30;101012.28;108678;1258;74371;-80
2023/05/24 01:24:05;;;;;;;;;;;;;;;16.66;64.16;101013.34;108669;1257;126674;-80
2023/05/24 01:26:45;;;;;;;;;;;;;;;16.67;64.30;101015.65;108422;1258;72637;-80
2023/05/24 01:29:11;;;;;;;;;;;;;;;16.67;64.45;101014.60;108582;1257;126531;-80
2023/05/24 01:31:38;;;;;;;;;;;;;;;16.67;64.48;101017.61;108641;1256;58833;-80
2023/05/24 01:34:05;;;;;;;;;;;;;;;16.68;64.66;101017.95;108736;1256;73609;-80
2023/05/24 01:36:32;;;;;;;;;;;;;;;16.69;64.82;101021.86;108724;1259;125089;-80
2023/05/24 01:38:59;;;;;;;;;;;;;;;16.69;64.75;101023.99;108812;1258;72695;-80
2023/05/24 01:41:31;;;;;;;;;;;;;;;16.67;64.78;101032.13;108634;1256;124577;-80
2023/05/24 01:43:58;;;;;;;;;;;;;;;16.66;64.91;101042.59;108624;1257;58799;-80
2023/05/24 01:46:36;;;;;;;;;;;;;;;16.65;64.97;101046.13;108735;1257;73740;-80
2023/05/24 01:49:16;;;;;;;;;;;;;;;16.62;65.14;101055.50;108568;1258;125536;-80
2023/05/24 01:51:47;;;;;;;;;;;;;;;16.60;65.34;101057.98;108682;1257;72516;-80
2023/05/24 01:54:14;;;;;;;;;;;;;;;16.59;65.32;101062.04;108577;1259;125051;-80
2023/05/24 01:56:42;;;;;;;;;;;;;;;16.58;65.30;101061.85;108801;1256;60772;-80
2023/05/24 01:59:09;;;;;;;;;;;;;;;16.57;65.13;101056.70;108759;1256;126332;-80
2023/05/24 02:01:36;;;;;;;;;;;;;;;16.55;65.24;101055.45;108639;1257;68205;-80
2023/05/24 02:04:03;;;;;;;;;;;;;;;16.52;65.29;101054.73;108636;1257;71813;-80
2023/05/24 02:06:29;;;;;;;;;;;;;;;16.49;65.38;101054.72;108519;1256;124992;-80
2023/05/24 02:08:56;;;;;;;;;;;;;;;16.48;65.52;101050.29;108717;1260;58831;-80
2023/05/24 02:11:23;;;;;;;;;;;;;;;16.46;65.49;101049.57;108699;1256;124962;-80
2023/05/24 02:13:50;;;;;;;;;;;;;;;16.46;65.43;101050.27;108902;1256;67603;-80
2023/05/24 02:16:17;;;;;;;;;;;;;;;16.47;65.36;101049.92;108739;1264;72766;-80
2023/05/24 02:18:45;;;;;;;;;;;;;;;16.49;65.27;101042.85;108708;1257;124006;-81
2023/05/24 02:21:12;;;;;;;;;;;;;;;16.51;65.24;101042.16;108641;1258;59749;-81
2023/05/24 02:23:39;;;;;;;;;;;;;;;16.53;65.20;101049.79;108676;1262;166736;-80
2023/05/24 02:26:06;;;;;;;;;;;;;;;16.54;65.17;101049.27;108843;1256;67360;-80
2023/05/24 02:28:33;;;;;;;;;;;;;;;16.56;65.19;101048.91;108785;1257;72396;-80
2023/05/24 02:31:00;;;;;;;;;;;;;;;16.57;65.15;101046.26;108684;1257;123620;-80
2023/05/24 02:33:28;;;;;;;;;;;;;;;16.58;65.16;101044.14;108578;1257;60140;-80
2023/05/24 02:35:55;;;;;;;;;;;;;;;16.57;65.17;101041.83;108484;1257;124403;-80
2023/05/24 02:38:22;;;;;;;;;;;;;;;16.56;65.12;101039.88;108671;1262;67474;-80
2023/05/24 02:40:49;;;;;;;;;;;;;;;16.55;65.03;101035.44;108610;1260;124848;-81
2023/05/24 02:43:16;;;;;;;;;;;;;;;16.54;65.07;101037.57;108786;1256;60114;-81
2023/05/24 02:45:43;;;;;;;;;;;;;;;16.53;65.05;101039.69;108734;1257;59726;-80
2023/05/24 02:48:09;;;;;;;;;;;;;;;16.51;64.98;101034.71;108598;1257;126578;-80
2023/05/24 02:50:36;;;;;;;;;;;;;;;16.51;65.11;101038.62;108702;1258;65756;-80
2023/05/24 02:53:03;;;;;;;;;;;;;;;16.54;64.86;101046.42;108567;1258;125187;-80
2023/05/24 02:55:31;;;;;;;;;;;;;;;16.57;65.03;101050.52;108651;1259;59193;-80
2023/05/24 02:57:58;;;;;;;;;;;;;;;16.61;64.89;101057.44;108705;1257;60359;-80
2023/05/24 03:00:25;;;;;;;;;;;;;;;16.66;65.05;101058.53;108576;1257;124616;-80
2023/05/24 03:02:52;;;;;;;;;;;;;;;16.69;65.13;101054.83;108786;1257;65959;-80
2023/05/24 03:05:18;;;;;;;;;;;;;;;16.72;65.03;101054.84;108630;1259;125195;-78
2023/05/24 03:07:45;;;;;;;;;;;;;;;16.72;64.76;101050.22;108781;1261;58798;-79
2023/05/24 03:10:12;;;;;;;;;;;;;;;16.73;64.60;101048.29;108838;1256;60237;-81
2023/05/24 03:12:39;;;;;;;;;;;;;;;16.74;64.54;101045.27;108748;1256;123908;-78
2023/05/24 03:15:06;;;;;;;;;;;;;;;16.75;64.47;101043.33;108734;1257;66768;-79
2023/05/24 03:17:33;;;;;;;;;;;;;;;16.75;64.41;101041.56;108651;1257;125313;-79
2023/05/24 03:20:00;;;;;;;;;;;;;;;16.74;64.36;101042.08;108640;1259;59122;-79
2023/05/24 03:22:27;;;;;;;;;;;;;;;16.70;64.47;101045.08;108649;1258;58728;-79
2023/05/24 03:24:53;;;;;;;;;;;;;;;16.70;64.46;101039.23;108577;1258;124735;-79
2023/05/24 03:27:20;;;;;;;;;;;;;;;16.71;64.49;101043.15;108726;1260;67883;-79
2023/05/24 03:29:47;;;;;;;;;;;;;;;16.71;64.53;101036.05;108633;1256;124394;-79
2023/05/24 03:32:14;;;;;;;;;;;;;;;16.71;64.47;101036.95;108712;1273;58708;-79
2023/05/24 03:34:41;;;;;;;;;;;;;;;16.72;64.46;101033.74;108679;1257;125716;-79
2023/05/24 03:37:07;;;;;;;;;;;;;;;16.72;64.47;101035.34;108668;1262;72588;-80
2023/05/24 03:39:34;;;;;;;;;;;;;;;16.74;64.33;101037.29;108765;1272;67390;-80
2023/05/24 03:42:01;;;;;;;;;;;;;;;16.76;64.23;101034.65;108740;1256;124100;-79
2023/05/24 03:44:28;;;;;;;;;;;;;;;16.78;64.29;101037.66;108801;1259;58385;-80
2023/05/24 03:46:55;;;;;;;;;;;;;;;16.82;64.31;101042.32;108740;1257;124378;-80
2023/05/24 03:49:21;;;;;;;;;;;;;;;16.83;64.19;101040.73;108778;1257;73921;-79
2023/05/24 03:51:48;;;;;;;;;;;;;;;16.86;64.31;101040.58;108796;1257;65701;-80
2023/05/24 03:54:16;;;;;;;;;;;;;;;16.89;64.14;101040.05;108673;1258;124598;-80
2023/05/24 03:56:43;;;;;;;;;;;;;;;16.92;64.08;101039.70;108727;1257;58417;-79
2023/05/24 03:59:10;;;;;;;;;;;;;;;16.94;64.01;101043.95;108620;1259;124132;-83
2023/05/24 04:01:37;;;;;;;;;;;;;;;16.96;63.85;101047.17;108746;1256;75084;-82
2023/05/24 04:04:04;;;;;;;;;;;;;;;16.99;63.82;101046.47;108802;1260;67585;-83
2023/05/24 04:06:31;;;;;;;;;;;;;;;17.01;63.73;101045.23;108593;1257;125207;-82
2023/05/24 04:08:58;;;;;;;;;;;;;;;17.03;63.64;101048.96;108672;1257;58584;-82
2023/05/24 04:11:27;;;;;;;;;;;;;;;17.05;63.52;101048.09;108424;1257;125018;-83
2023/05/24 04:13:54;;;;;;;;;;;;;;;17.11;63.51;101049.16;108758;1262;75277;-83
2023/05/24 04:16:25;;;;;;;;;;;;;;;17.16;63.35;101053.80;108801;1256;67076;-82
2023/05/24 04:18:52;;;;;;;;;;;;;;;17.21;63.26;101060.19;108598;1262;125040;-82
2023/05/24 04:21:19;;;;;;;;;;;;;;;17.26;63.22;101064.27;108602;1259;58396;-83
2023/05/24 04:23:46;;;;;;;;;;;;;;;17.31;63.10;101066.95;108622;1256;124503;-82
2023/05/24 04:26:13;;;;;;;;;;;;;;;17.35;63.00;101075.11;108798;1257;74454;-78
2023/05/24 04:28:40;;;;;;;;;;;;;;;17.39;62.93;101076.55;108782;1257;67356;-81
2023/05/24 04:31:08;;;;;;;;;;;;;;;17.44;62.83;101080.45;108764;1257;73275;-82
2023/05/24 04:33:35;;;;;;;;;;;;;;;17.47;62.70;101079.77;108710;1257;59109;-82
2023/05/24 04:36:02;;;;;;;;;;;;;;;17.49;62.69;101083.13;108485;1257;125360;-82
2023/05/24 04:38:31;;;;;;;;;;;;;;;17.53;62.68;101084.56;108778;1259;73989;-82
2023/05/24 04:40:58;;;;;;;;;;;;;;;17.57;62.50;101083.31;108737;1257;124532;-83
2023/05/24 04:43:26;;;;;;;;;;;;;;;17.59;62.51;101086.17;108753;1256;71378;-81
2023/05/24 04:45:56;;;;;;;;;;;;;;;17.63;62.35;101089.73;108801;1256;58583;-79
2023/05/24 04:48:23;;;;;;;;;;;;;;;17.67;62.32;101095.41;108756;1256;125102;-79
2023/05/24 04:50:51;;;;;;;;;;;;;;;17.72;62.20;101098.79;108812;1257;73884;-79
2023/05/24 04:53:18;;;;;;;;;;;;;;;17.76;62.13;101099.68;108725;1257;125463;-81
2023/05/24 04:55:45;;;;;;;;;;;;;;;17.77;61.91;101106.60;108771;1258;72982;-81
2023/05/24 04:58:12;;;;;;;;;;;;;;;17.79;61.92;101108.73;108809;1259;58541;-83
2023/05/24 05:00:39;;;;;;;;;;;;;;;17.82;61.83;101108.73;108675;1257;123511;-84
2023/05/24 05:03:06;;;;;;;;;;;;;;;17.83;61.80;101110.14;108756;1257;75087;-83
2023/05/24 05:05:33;;;;;;;;;;;;;;;17.83;61.75;101108.39;108622;1259;126387;-84
2023/05/24 05:08:00;;;;;;;;;;;;;;;17.84;61.70;101110.53;108768;1262;71857;-84
2023/05/24 05:10:27;;;;;;;;;;;;;;;17.85;61.61;101110.55;108766;1259;58609;-81
2023/05/24 05:12:54;;;;;;;;;;;;;;;17.83;61.50;101114.59;108742;1259;125609;-84
2023/05/24 05:15:21;;;;;;;;;;;;;;;17.84;61.53;101118.33;108823;1262;72631;-83
2023/05/24 05:17:48;;;;;;;;;;;;;;;17.87;61.52;101121.57;108690;1256;124496;-80
2023/05/24 05:20:15;;;;;;;;;;;;;;;17.88;61.35;101119.42;108769;1258;72196;-81
2023/05/24 05:22:48;;;;;;;;;;;;;;;17.85;61.24;101122.44;108547;1257;124987;-81
2023/05/24 05:25:15;;;;;;;;;;;;;;;17.82;61.20;101123.83;108735;1256;58614;-81
2023/05/24 05:27:42;;;;;;;;;;;;;;;17.83;61.27;101126.67;108751;1256;72557;-81
2023/05/24 05:30:09;;;;;;;;;;;;;;;17.88;61.29;101132.38;108712;1256;124559;-80
2023/05/24 05:32:36;;;;;;;;;;;;;;;17.92;61.18;101134.16;108808;1257;73150;-80
2023/05/24 05:35:03;;;;;;;;;;;;;;;17.94;61.05;101139.31;108690;1257;124509;-81
2023/05/24 05:37:30;;;;;;;;;;;;;;;17.92;60.87;101144.65;108806;1257;60071;-80
2023/05/24 05:39:57;;;;;;;;;;;;;;;17.89;60.83;101147.83;108820;1257;72258;-81
2023/05/24 05:42:24;;;;;;;;;;;;;;;17.87;60.79;101151.38;108693;1256;124423;-81
2023/05/24 05:44:51;;;;;;;;;;;;;;;17.88;60.83;101156.53;108844;1256;72087;-81
2023/05/24 05:47:18;;;;;;;;;;;;;;;17.88;60.87;101164.16;108697;1258;124022;-80
2023/05/24 05:49:45;;;;;;;;;;;;;;;17.92;60.96;101170.39;108828;1257;59174;-80
2023/05/24 05:52:12;;;;;;;;;;;;;;;17.99;61.00;101173.77;108707;1256;72906;-81
2023/05/24 05:54:39;;;;;;;;;;;;;;;17.97;60.62;101175.72;108639;1259;124793;-80
2023/05/24 05:57:09;;;;;;;;;;;;;;;17.97;60.54;101178.20;108694;1256;72537;-80
2023/05/24 05:59:37;;;;;;;;;;;;;;;17.99;60.24;101180.52;108643;1257;124469;-80
2023/05/24 06:02:05;;;;;;;;;;;;;;;17.99;60.07;101182.83;108785;1256;59329;-80
2023/05/24 06:04:32;;;;;;;;;;;;;;;18.06;59.84;101184.96;108767;1257;73954;-80
2023/05/24 06:06:59;;;;;;;;;;;;;;;18.12;59.76;101183.55;108603;1257;125263;-80
2023/05/24 06:09:26;;;;;;;;;;;;;;;18.21;59.50;101183.73;108685;1257;73116;-81
2023/05/24 06:11:52;;;;;;;;;;;;;;;18.27;59.42;101187.64;108619;1257;124042;-80
2023/05/24 06:14:21;;;;;;;;;;;;;;;18.38;59.37;101191.02;108751;1257;59639;-80
2023/05/24 06:16:48;;;;;;;;;;;;;;;18.51;59.26;101192.44;108716;1256;124284;-81
2023/05/24 06:19:15;;;;;;;;;;;;;;;18.60;58.98;101192.61;108791;1262;65917;-80
2023/05/24 06:21:46;;;;;;;;;;;;;;;18.75;58.95;101193.66;108812;1256;71845;-81
2023/05/24 06:24:14;;;;;;;;;;;;;;;19.01;58.88;101190.27;108682;1257;124596;-81
2023/05/24 06:26:41;;;;;;;;;;;;;;;19.28;58.64;101191.41;108764;1257;59647;-81
2023/05/24 06:29:08;;;;;;;;;;;;;;;19.55;58.14;101197.52;108532;1257;125022;-80
2023/05/24 06:31:35;;;;;;;;;;;;;;;19.74;57.65;101198.50;108669;1257;66951;-81
2023/05/24 06:34:02;;;;;;;;;;;;;;;19.92;57.29;101201.61;108724;1264;73649;-81
2023/05/24 06:36:29;;;;;;;;;;;;;;;20.08;57.05;101202.94;108594;1259;124430;-81
2023/05/24 06:38:56;;;;;;;;;;;;;;;20.28;56.75;101199.93;108700;1258;59802;-81
2023/05/24 06:41:23;;;;;;;;;;;;;;;20.35;56.04;101200.77;108606;1259;124557;-81
2023/05/24 06:43:52;;;;;;;;;;;;;;;20.20;55.40;101209.63;108712;1257;65502;-81
2023/05/24 06:46:27;;;;;;;;;;;;;;;20.12;55.49;101216.27;108770;1257;72926;-81
2023/05/24 06:48:54;;;;;;;;;;;;;;;20.12;55.30;101220.19;108674;1258;124214;-81
2023/05/24 06:51:21;;;;;;;;;;;;;;;20.16;55.10;101218.55;108780;1257;60130;-81
2023/05/24 06:53:50;;;;;;;;;;;;;;;20.22;54.89;101220.11;108635;1257;124638;-81
2023/05/24 06:56:17;;;;;;;;;;;;;;;20.28;54.84;101220.60;108697;1257;66912;-81
2023/05/24 06:58:43;;;;;;;;;;;;;;;20.39;54.66;101222.13;108710;1257;73185;-81
2023/05/24 07:01:10;;;;;;;;;;;;;;;20.71;54.72;101224.02;108678;1258;124742;-80
2023/05/24 07:03:37;;;;;;;;;;;;;;;21.09;54.33;101227.20;108693;1257;58562;-81
2023/05/24 07:06:04;;;;;;;;;;;;;;;21.40;53.77;101227.41;108599;1256;124112;-81
2023/05/24 07:08:31;;;;;;;;;;;;;;;21.60;53.07;101231.64;108788;1261;67600;-81
2023/05/24 07:10:58;;;;;;;;;;;;;;;21.67;52.74;101228.14;108681;1257;124297;-81
2023/05/24 07:13:25;;;;;;;;;;;;;;;21.76;52.63;101226.97;108721;1258;58976;-81
2023/05/24 07:15:52;;;;;;;;;;;;;;;21.92;52.30;101225.84;108624;1259;60665;-81
2023/05/24 07:18:18;;;;;;;;;;;;;;;22.01;51.94;101225.52;108622;1257;124172;-81
2023/05/24 07:20:46;;;;;;;;;;;;;;;22.08;51.75;101226.86;108765;1257;66357;-81
2023/05/24 07:23:12;;;;;;;;;;;;;;;22.06;51.15;101229.75;108656;1257;125375;-80
2023/05/24 07:25:39;;;;;;;;;;;;;;;21.94;50.98;101228.14;108714;1257;58573;-81
2023/05/24 07:28:06;;;;;;;;;;;;;;;21.85;51.01;101227.91;108789;1256;60906;-81
2023/05/24 07:30:34;;;;;;;;;;;;;;;21.82;50.77;101233.83;108721;1257;124454;-81
2023/05/24 07:33:01;;;;;;;;;;;;;;;21.78;50.57;101235.15;108762;1259;67107;-81
2023/05/24 07:35:29;;;;;;;;;;;;;;;21.72;50.43;101238.98;108582;1263;124273;-81
2023/05/24 07:37:56;;;;;;;;;;;;;;;21.83;50.73;101243.48;108702;1259;58821;-81
2023/05/24 07:40:24;;;;;;;;;;;;;;;22.07;50.63;101245.27;108813;1257;59722;-83
2023/05/24 07:42:50;;;;;;;;;;;;;;;22.35;50.24;101247.92;108696;1258;125175;-81
2023/05/24 07:45:18;;;;;;;;;;;;;;;22.44;49.63;101249.92;108836;1257;67078;-81
2023/05/24 07:47:45;;;;;;;;;;;;;;;22.51;49.53;101250.70;108623;1258;124199;-81
2023/05/24 07:50:12;;;;;;;;;;;;;;;22.60;49.23;101251.64;108693;1257;58307;-81
2023/05/24 07:52:39;;;;;;;;;;;;;;;22.59;49.03;101254.52;108745;1258;59986;-81
2023/05/24 07:55:06;;;;;;;;;;;;;;;22.55;48.81;101255.10;108619;1258;125451;-81
2023/05/24 07:57:33;;;;;;;;;;;;;;;22.36;48.46;101258.27;108823;1256;67100;-81
2023/05/24 08:00:05;;;;;;;;;;;;;;;22.17;48.75;101258.53;108687;1256;124054;-82
2023/05/24 08:02:33;;;;;;;;;;;;;;;22.13;48.95;101256.81;108629;1257;58582;-81
2023/05/24 08:05:00;;;;;;;;;;;;;;;22.13;48.90;101260.02;108612;1259;125004;-81
2023/05/24 08:07:27;;;;;;;;;;;;;;;21.99;48.61;101266.30;108796;1259;72564;-81
2023/05/24 08:09:54;;;;;;;;;;;;;;;21.87;48.65;101269.33;108702;1262;67576;-81
2023/05/24 08:12:21;;;;;;;;;;;;;;;21.82;48.73;101273.50;108653;1257;124734;-81
2023/05/24 08:14:47;;;;;;;;;;;;;;;21.80;48.61;101280.31;108744;1257;58576;-81
2023/05/24 08:17:15;;;;;;;;;;;;;;;21.81;48.46;101281.73;108545;1259;124673;-81
2023/05/24 08:19:42;;;;;;;;;;;;;;;21.99;48.45;101281.66;108703;1273;74110;-81
2023/05/24 08:22:09;;;;;;;;;;;;;;;22.21;48.12;101285.30;108789;1257;67074;-81
2023/05/24 08:24:37;;;;;;;;;;;;;;;22.38;47.85;101282.20;108716;1272;124577;-81
2023/05/24 08:27:04;;;;;;;;;;;;;;;22.50;47.61;101280.23;108848;1256;58354;-81
2023/05/24 08:29:31;;;;;;;;;;;;;;;22.64;47.60;101277.31;108766;1256;124086;-81
2023/05/24 08:31:59;;;;;;;;;;;;;;;22.85;47.64;101278.94;108734;1258;74969;-80
2023/05/24 08:34:27;;;;;;;;;;;;;;;23.11;47.29;101279.05;108719;1259;65685;-81
2023/05/24 08:36:54;;;;;;;;;;;;;;;23.22;47.16;101280.09;108564;1258;125737;-81
2023/05/24 08:39:21;;;;;;;;;;;;;;;23.38;46.94;101278.16;108647;1257;58554;-81
2023/05/24 08:41:47;;;;;;;;;;;;;;;23.49;46.63;101281.86;108715;1257;124371;-81
2023/05/24 08:44:14;;;;;;;;;;;;;;;23.56;46.41;101287.27;108746;1259;73878;-81
2023/05/24 08:46:41;;;;;;;;;;;;;;;23.58;46.41;101283.14;108650;1257;65822;-81
2023/05/24 08:49:11;;;;;;;;;;;;;;;23.76;46.28;101284.20;108602;1256;124533;-81
2023/05/24 08:51:38;;;;;;;;;;;;;;;23.87;46.10;101289.90;108707;1259;58561;-81
2023/05/24 08:54:05;;;;;;;;;;;;;;;24.00;45.86;101287.46;108534;1258;126502;-81
2023/05/24 08:56:32;;;;;;;;;;;;;;;24.13;45.37;101290.41;108755;1256;72779;-81
2023/05/24 08:58:59;;;;;;;;;;;;;;;24.08;45.17;101288.37;108727;1256;124687;-81
2023/05/24 09:01:26;;;;;;;;;;;;;;;24.17;45.19;101292.27;108824;1256;71364;-81
2023/05/24 09:03:53;;;;;;;;;;;;;;;24.17;44.97;101286.89;108781;1257;58280;-81
2023/05/24 09:06:20;;;;;;;;;;;;;;;24.32;45.04;101288.70;108695;1256;124172;-80
2023/05/24 09:08:49;;;;;;;;;;;;;;;24.38;44.80;101291.61;108804;1256;74240;-81
2023/05/24 09:11:15;;;;;;;;;;;;;;;24.34;44.60;101289.56;108695;1256;126618;-81
2023/05/24 09:13:43;;;;;;;;;;;;;;;24.29;44.27;101290.57;108720;1258;72372;-79
2023/05/24 09:16:10;;;;;;;;;;;;;;;24.09;44.03;101292.81;108743;1272;58662;-80
2023/05/24 09:18:38;;;;;;;;;;;;;;;23.90;44.14;101302.20;108822;1256;123852;-79
2023/05/24 09:21:06;;;;;;;;;;;;;;;23.80;44.29;101297.75;108760;1256;73912;-79
2023/05/24 09:23:33;;;;;;;;;;;;;;;23.79;44.44;101302.42;108565;1257;125856;-79
2023/05/24 09:26:05;;;;;;;;;;;;;;;23.71;44.39;101297.02;108825;1256;72725;-80
2023/05/24 09:28:32;;;;;;;;;;;;;;;23.61;44.43;101299.55;108811;1256;58596;-80
2023/05/24 09:31:02;;;;;;;;;;;;;;;23.63;44.65;101302.56;108679;1256;124505;-80
2023/05/24 09:33:31;;;;;;;;;;;;;;;23.74;44.50;101302.86;108746;1260;74441;-80
2023/05/24 09:35:58;;;;;;;;;;;;;;;23.78;44.11;101304.77;108691;1257;124422;-80
2023/05/24 09:38:25;;;;;;;;;;;;;;;23.82;44.25;101304.53;108743;1263;72746;-79
2023/05/24 09:41:02;;;;;;;;;;;;;;;23.78;43.94;101302.27;108455;1258;264264;-80
2023/05/24 09:43:30;;;;;;;;;;;;;;;23.65;43.94;101306.83;108664;1259;59497;-79
2023/05/24 09:45:58;;;;;;;;;;;;;;;23.50;43.81;101303.17;108745;1259;74174;-79
2023/05/24 09:48:26;;;;;;;;;;;;;;;23.39;43.95;101308.95;108591;1259;124386;-79
2023/05/24 09:51:02;;;;;;;;;;;;;;;23.32;44.15;101309.61;108726;1259;72014;-81
2023/05/24 09:53:29;;;;;;;;;;;;;;;23.28;44.10;101312.55;108624;1256;125301;-79
2023/05/24 09:55:56;;;;;;;;;;;;;;;23.19;44.33;101316.48;108681;1263;60600;-80
2023/05/24 09:58:23;;;;;;;;;;;;;;;23.13;44.15;101320.71;108757;1256;73282;-79
2023/05/24 10:00:50;;;;;;;;;;;;;;;23.01;44.23;101317.84;108579;1256;124913;-79
2023/05/24 10:03:16;;;;;;;;;;;;;;;23.00;44.32;101320.38;108745;1261;72685;-79
2023/05/24 10:05:44;;;;;;;;;;;;;;;23.03;44.33;101320.34;108639;1259;124741;-81
2023/05/24 10:08:11;;;;;;;;;;;;;;;23.03;44.20;101324.26;108754;1257;58733;-82
2023/05/24 10:10:37;;;;;;;;;;;;;;;23.03;44.48;101317.65;108735;1265;73859;-82
2023/05/24 10:13:04;;;;;;;;;;;;;;;23.05;44.49;101321.74;108646;1258;123995;-82
2023/05/24 10:15:31;;;;;;;;;;;;;;;23.04;44.63;101317.27;108658;1258;71467;-82
2023/05/24 10:18:00;;;;;;;;;;;;;;;22.99;44.61;101317.89;108636;1259;124116;-85
2023/05/24 10:20:27;;;;;;;;;;;;;;;22.88;44.91;101315.91;108798;1259;60214;-82
2023/05/24 10:22:55;;;;;;;;;;;;;;;22.84;45.00;101318.66;108620;1259;124728;-82
2023/05/24 10:25:24;;;;;;;;;;;;;;;22.76;44.62;101328.83;108747;1262;66604;-82
2023/05/24 10:27:53;;;;;;;;;;;;;;;22.61;44.66;101332.28;108708;1260;72649;-82
2023/05/24 10:30:26;;;;;;;;;;;;;;;22.50;44.56;101334.42;108609;1263;123966;-82
2023/05/24 10:32:54;;;;;;;;;;;;;;;22.36;44.55;101330.52;108752;1257;60634;-81
2023/05/24 10:35:22;;;;;;;;;;;;;;;22.29;44.68;101332.58;108583;1257;124613;-81
2023/05/24 10:37:48;;;;;;;;;;;;;;;22.21;44.95;101329.98;108701;1257;66784;-81
2023/05/24 10:40:19;;;;;;;;;;;;;;;22.14;45.05;101332.23;108663;1262;72828;-81
2023/05/24 10:42:46;;;;;;;;;;;;;;;22.13;45.11;101337.41;108665;1262;124418;-82
2023/05/24 10:45:52;;;;;;;;;;;;;;;22.07;45.02;101332.84;108773;1257;60234;-82
2023/05/24 10:48:27;;;;;;;;;;;;;;;22.06;45.12;101335.73;108337;1263;124049;-81
2023/05/24 10:50:57;;;;;;;;;;;;;;;22.02;45.18;101329.70;108388;1265;67603;-82
2023/05/24 10:53:26;;;;;;;;;;;;;;;22.05;45.27;101331.11;108286;1265;124648;-82
2023/05/24 10:56:07;;;;;;;;;;;;;;;22.03;45.27;101335.58;108251;1262;58542;-82
2023/05/24 10:59:05;;;;;;;;;;;;;;;22.02;45.52;101334.71;108230;1265;124919;-82
2023/05/24 11:01:32;;;;;;;;;;;;;;;22.05;45.46;101344.85;108379;1264;72602;-82
2023/05/24 11:04:12;;;;;;;;;;;;;;;22.02;45.56;101342.02;108363;1264;67616;-81
2023/05/24 11:06:47;;;;;;;;;;;;;;;21.98;45.49;101344.23;108188;1262;124016;-81
2023/05/24 11:09:25;;;;;;;;;;;;;;;21.92;45.71;101341.98;108309;1268;58397;-82
2023/05/24 11:12:06;;;;;;;;;;;;;;;21.95;45.77;101344.80;108247;1263;124528;-82
2023/05/24 11:14:33;;;;;;;;;;;;;;;21.97;45.90;101345.66;108362;1264;73180;-82
2023/05/24 11:17:00;;;;;;;;;;;;;;;22.05;45.93;101345.21;108250;1264;124986;-88
2023/05/24 11:19:29;;;;;;;;;;;;;;;22.10;45.65;101349.61;108643;1259;72118;-89
2023/05/24 11:22:00;;;;;;;;;;;;;;;22.11;45.53;101347.98;108645;1258;58609;-88
2023/05/24 11:24:27;;;;;;;;;;;;;;;22.13;45.52;101349.21;108625;1259;124333;-88
2023/05/24 11:26:55;;;;;;;;;;;;;;;22.10;45.47;101352.29;108801;1256;73668;-82
2023/05/24 11:29:22;;;;;;;;;;;;;;;22.08;45.58;101349.46;108628;1273;124648;-82
2023/05/24 11:32:04;;;;;;;;;;;;;;;22.12;45.41;101351.73;108740;1258;73046;-82
2023/05/24 11:34:43;;;;;;;;;;;;;;;22.17;45.56;101354.88;108846;1256;58589;-82
2023/05/24 11:37:10;;;;;;;;;;;;;;;22.17;45.52;101354.89;108656;1261;126204;-88
2023/05/24 11:39:37;;;;;;;;;;;;;;;22.16;45.42;101355.79;108768;1259;74467;-88
2023/05/24 11:42:05;;;;;;;;;;;;;;;22.13;45.50;101356.72;108669;1259;123895;-88
2023/05/24 11:44:32;;;;;;;;;;;;;;;22.12;45.48;101353.52;108797;1260;72105;-89
2023/05/24 11:46:59;;;;;;;;;;;;;;;22.16;45.46;101350.61;108652;1256;124470;-88
2023/05/24 11:49:26;;;;;;;;;;;;;;;22.16;45.43;101353.10;108773;1257;58683;-89
2023/05/24 11:51:53;;;;;;;;;;;;;;;22.17;45.42;101354.16;108880;1256;73872;-89
2023/05/24 11:54:21;;;;;;;;;;;;;;;22.15;45.50;101352.05;108718;1256;124489;-82
2023/05/24 11:56:48;;;;;;;;;;;;;;;22.14;45.15;101350.64;108873;1259;73386;-82
2023/05/24 11:59:15;;;;;;;;;;;;;;;22.15;45.37;101344.73;108619;1263;125087;-82
2023/05/24 12:01:42;;;;;;;;;;;;;;;22.20;45.46;101346.44;108637;1258;59518;-82
2023/05/24 12:04:10;;;;;;;;;;;;;;;22.25;45.54;101341.38;108700;1256;73311;-82
2023/05/24 12:06:37;;;;;;;;;;;;;;;22.30;45.45;101334.52;108807;1258;124121;-82
2023/05/24 12:09:07;;;;;;;;;;;;;;;22.29;45.54;101334.91;108684;1257;73522;-82
2023/05/24 12:11:37;;;;;;;;;;;;;;;22.30;45.49;101337.92;108614;1258;125642;-82
2023/05/24 12:14:04;;;;;;;;;;;;;;;22.31;45.60;101334.70;108765;1258;60398;-82
2023/05/24 12:16:32;;;;;;;;;;;;;;;22.32;45.34;101336.12;108782;1256;74441;-82
2023/05/24 12:19:00;;;;;;;;;;;;;;;22.32;45.27;101333.79;108714;1257;125738;-82
2023/05/24 12:21:29;;;;;;;;;;;;;;;22.31;45.42;101340.42;108767;1262;71403;-82
2023/05/24 12:24:13;;;;;;;;;;;;;;;22.31;45.54;101343.10;108719;1259;124268;-82
2023/05/24 12:26:41;;;;;;;;;;;;;;;22.35;45.64;101347.16;108720;1259;59669;-84
2023/05/24 12:29:10;;;;;;;;;;;;;;;22.39;45.77;101345.85;108698;1259;123966;-83